createdAt,value
2023-01-22T00:00:35.402Z,11.40
2023-01-22T00:03:02.129Z,10.57
2023-01-22T00:05:28.765Z,11.40
2023-01-22T00:07:55.872Z,10.60
2023-01-22T00:10:22.482Z,10.50
2023-01-22T00:12:49.058Z,9.50
2023-01-22T00:15:16.238Z,11.23
2023-01-22T00:17:42.821Z,11.48
2023-01-22T00:20:11.519Z,11.68
2023-01-22T00:22:38.047Z,11.30
2023-01-22T00:25:05.395Z,11.57
2023-01-22T00:27:31.966Z,12.25
2023-01-22T00:29:58.579Z,11.93
2023-01-22T00:32:25.316Z,12.27
2023-01-22T00:34:54.926Z,11.25
2023-01-22T00:39:48.087Z,10.02
2023-01-22T00:42:14.672Z,10.82
2023-01-22T00:44:41.270Z,10.75
2023-01-22T00:47:07.925Z,10.85
2023-01-22T00:49:36.547Z,11.70
2023-01-22T00:52:03.195Z,11.25
2023-01-22T00:54:30.297Z,11.73
2023-01-22T00:56:56.987Z,11.23
2023-01-22T00:59:24.151Z,11.82
2023-01-22T01:01:50.869Z,11.23
2023-01-22T01:04:17.600Z,12.65
2023-01-22T01:06:44.304Z,11.95
2023-01-22T01:09:13.150Z,12.68
2023-01-22T01:11:39.751Z,13.23
2023-01-22T01:14:06.521Z,12.95
2023-01-22T01:16:33.652Z,13.35
2023-01-22T01:19:11.862Z,13.10
2023-01-22T01:21:38.979Z,12.95
2023-01-22T01:24:05.764Z,13.25
2023-01-22T01:26:33.610Z,13.73
2023-01-22T01:29:04.442Z,14.45
2023-01-22T01:31:31.218Z,13.57
2023-01-22T01:33:58.456Z,13.80
2023-01-22T01:39:12.891Z,13.90
2023-01-22T01:41:39.518Z,14.18
2023-01-22T01:44:18.062Z,14.02
2023-01-22T01:46:55.870Z,10.30
2023-01-22T01:49:32.260Z,12.88
2023-01-22T01:52:03.097Z,13.18
2023-01-22T01:54:30.928Z,13.45
2023-01-22T01:57:04.048Z,11.98
2023-01-22T01:59:33.527Z,13.43
2023-01-22T02:02:02.512Z,13.50
2023-01-22T02:04:29.609Z,13.40
2023-01-22T02:06:56.330Z,12.65
2023-01-22T02:09:23.076Z,12.70
2023-01-22T02:11:51.458Z,12.93
2023-01-22T02:14:23.201Z,13.25
2023-01-22T02:17:22.488Z,12.05
2023-01-22T02:19:51.151Z,12.55
2023-01-22T02:22:20.605Z,12.55
2023-01-22T02:24:47.594Z,12.95
2023-01-22T02:27:14.227Z,13.55
2023-01-22T02:29:41.311Z,12.30
2023-01-22T02:32:10.273Z,13.32
2023-01-22T02:34:37.748Z,12.88
2023-01-22T02:37:04.703Z,12.20
2023-01-22T02:39:32.075Z,12.23
2023-01-22T02:42:02.214Z,11.05
2023-01-22T02:44:29.398Z,12.27
2023-01-22T02:46:56.067Z,13.10
2023-01-22T02:49:22.767Z,12.40
2023-01-22T02:51:50.299Z,11.75
2023-01-22T02:54:18.447Z,11.32
2023-01-22T02:56:45.072Z,11.80
2023-01-22T02:59:11.783Z,11.93
2023-01-22T03:01:38.403Z,9.60
2023-01-22T03:04:12.436Z,11.35
2023-01-22T03:06:44.081Z,12.00
2023-01-22T03:09:12.867Z,10.60
2023-01-22T03:14:31.587Z,9.82
2023-01-22T03:17:17.969Z,9.75
2023-01-22T03:20:03.540Z,10.18
2023-01-22T03:22:31.362Z,11.43
2023-01-22T03:25:00.388Z,10.43
2023-01-22T03:29:55.257Z,11.05
2023-01-22T03:32:22.799Z,11.13
2023-01-22T03:34:51.128Z,10.00
2023-01-22T03:37:18.398Z,10.02
2023-01-22T03:39:48.203Z,9.63
2023-01-22T03:42:25.478Z,10.20
2023-01-22T03:44:52.191Z,11.10
2023-01-22T03:47:19.881Z,10.55
2023-01-22T03:49:46.536Z,9.27
2023-01-22T03:52:13.370Z,10.40
2023-01-22T03:54:40.251Z,10.48
2023-01-22T03:57:08.535Z,9.75
2023-01-22T04:02:04.848Z,9.73
2023-01-22T04:04:38.227Z,10.25
2023-01-22T04:07:05.059Z,9.23
2023-01-22T04:09:32.482Z,9.90
2023-01-22T04:11:59.342Z,10.32
2023-01-22T04:14:27.019Z,9.55
2023-01-22T04:16:59.372Z,9.98
2023-01-22T04:20:01.645Z,8.02
2023-01-22T04:22:41.334Z,9.20
2023-01-22T04:25:12.273Z,9.13
2023-01-22T04:27:38.904Z,9.68
2023-01-22T04:30:07.459Z,9.13
2023-01-22T04:32:34.690Z,9.67
2023-01-22T04:35:35.513Z,9.10
2023-01-22T04:38:02.817Z,10.18
2023-01-22T04:40:29.506Z,10.25
2023-01-22T04:42:56.213Z,10.15
2023-01-22T04:45:23.567Z,9.90
2023-01-22T04:47:50.212Z,9.88
2023-01-22T04:50:22.813Z,9.05
2023-01-22T04:52:54.577Z,9.75
2023-01-22T04:55:21.723Z,10.38
2023-01-22T04:57:58.605Z,10.98
2023-01-22T05:00:27.656Z,9.13
2023-01-22T05:02:58.861Z,9.93
2023-01-22T05:05:28.422Z,10.13
2023-01-22T05:07:55.725Z,9.52
2023-01-22T05:10:23.268Z,9.60
2023-01-22T05:12:50.513Z,10.25
2023-01-22T05:15:24.332Z,9.32
2023-01-22T05:17:53.660Z,9.93
2023-01-22T05:20:21.119Z,8.82
2023-01-22T05:22:47.934Z,10.43
2023-01-22T05:25:18.053Z,9.85
2023-01-22T05:27:45.265Z,9.88
2023-01-22T05:30:20.679Z,10.55
2023-01-22T05:33:13.249Z,9.82
2023-01-22T05:35:40.745Z,10.20
2023-01-22T05:38:07.516Z,11.32
2023-01-22T05:40:34.145Z,9.93
2023-01-22T05:43:03.039Z,9.68
2023-01-22T05:48:17.157Z,10.38
2023-01-22T05:50:54.093Z,9.00
2023-01-22T05:53:20.694Z,9.45
2023-01-22T05:55:47.288Z,9.05
2023-01-22T05:58:14.100Z,9.38
2023-01-22T06:00:47.111Z,9.00
2023-01-22T06:03:23.470Z,9.50
2023-01-22T06:08:30.237Z,8.93
2023-01-22T06:11:01.384Z,8.23
2023-01-22T06:13:29.622Z,8.48
2023-01-22T06:16:01.636Z,7.90
2023-01-22T06:18:51.023Z,8.38
2023-01-22T06:21:17.753Z,7.93
2023-01-22T06:23:45.025Z,8.65
2023-01-22T06:26:13.307Z,7.75
2023-01-22T06:28:41.247Z,7.60
2023-01-22T06:31:08.070Z,8.23
2023-01-22T06:33:41.225Z,8.25
2023-01-22T06:36:08.477Z,8.40
2023-01-22T06:38:37.319Z,8.82
2023-01-22T06:41:05.839Z,8.98
2023-01-22T06:43:33.150Z,10.30
2023-01-22T06:45:59.885Z,9.10
2023-01-22T06:48:50.094Z,9.20
2023-01-22T06:51:16.990Z,10.38
2023-01-22T06:53:43.891Z,10.82
2023-01-22T06:56:11.565Z,9.95
2023-01-22T06:58:39.482Z,10.27
2023-01-22T07:01:06.187Z,10.40
2023-01-22T07:03:33.271Z,10.35
2023-01-22T07:06:02.405Z,11.30
2023-01-22T07:08:30.927Z,11.98
2023-01-22T07:10:58.246Z,11.52
2023-01-22T07:13:24.917Z,12.13
2023-01-22T07:15:51.612Z,11.88
2023-01-22T07:18:20.097Z,12.38
2023-01-22T07:20:47.453Z,12.77
2023-01-22T07:23:14.133Z,12.57
2023-01-22T07:25:40.843Z,13.98
2023-01-22T07:28:07.905Z,13.15
2023-01-22T07:30:34.581Z,14.23
2023-01-22T07:33:02.289Z,12.88
2023-01-22T07:35:30.051Z,13.65
2023-01-22T07:37:59.403Z,14.82
2023-01-22T07:40:26.587Z,13.35
2023-01-22T07:42:54.163Z,13.77
2023-01-22T07:45:24.725Z,13.80
2023-01-22T07:47:54.468Z,14.20
2023-01-22T07:50:25.826Z,14.80
2023-01-22T07:52:52.626Z,14.18
2023-01-22T07:55:19.790Z,14.18
2023-01-22T07:57:46.651Z,14.23
2023-01-22T08:00:17.140Z,14.68
2023-01-22T08:02:43.986Z,14.98
2023-01-22T08:05:13.958Z,15.23
2023-01-22T08:10:08.738Z,15.18
2023-01-22T08:12:38.482Z,15.25
2023-01-22T08:15:05.702Z,15.60
2023-01-22T08:17:32.342Z,14.63
2023-01-22T08:19:58.926Z,15.63
2023-01-22T08:22:25.705Z,16.23
2023-01-22T08:24:54.107Z,14.88
2023-01-22T08:27:22.716Z,15.55
2023-01-22T08:29:49.939Z,15.32
2023-01-22T08:32:18.242Z,16.17
2023-01-22T08:34:44.957Z,15.05
2023-01-22T08:37:11.745Z,15.15
2023-01-22T08:39:38.404Z,15.82
2023-01-22T08:42:05.009Z,14.85
2023-01-22T08:44:31.596Z,14.38
2023-01-22T08:46:58.470Z,14.90
2023-01-22T08:49:26.444Z,14.65
2023-01-22T08:51:53.534Z,14.98
2023-01-22T08:54:20.208Z,14.23
2023-01-22T08:56:48.004Z,15.18
2023-01-22T08:59:15.751Z,14.25
2023-01-22T09:01:42.578Z,14.18
2023-01-22T09:04:10.498Z,15.23
2023-01-22T09:06:38.324Z,14.05
2023-01-22T09:09:06.234Z,14.50
2023-01-22T09:11:33.556Z,13.73
2023-01-22T09:14:00.271Z,14.60
2023-01-22T09:16:27.607Z,13.40
2023-01-22T09:18:54.586Z,13.73
2023-01-22T09:21:21.296Z,15.18
2023-01-22T09:23:47.927Z,13.90
2023-01-22T09:26:14.746Z,13.93
2023-01-22T09:28:41.425Z,13.18
2023-01-22T09:31:11.965Z,13.63
2023-01-22T09:33:38.812Z,13.57
2023-01-22T09:36:14.119Z,13.68
2023-01-22T09:38:40.850Z,13.20
2023-01-22T09:41:18.188Z,13.52
2023-01-22T09:43:50.168Z,13.07
2023-01-22T09:46:23.562Z,13.13
2023-01-22T09:48:56.142Z,12.13
2023-01-22T09:51:23.003Z,13.27
2023-01-22T09:53:56.319Z,12.48
2023-01-22T09:56:32.674Z,14.18
2023-01-22T09:59:01.838Z,12.30
2023-01-22T10:01:29.732Z,12.30
2023-01-22T10:04:21.398Z,12.15
2023-01-22T10:06:50.072Z,14.00
2023-01-22T10:09:20.346Z,12.77
2023-01-22T10:11:52.289Z,13.25
2023-01-22T10:14:22.763Z,13.20
2023-01-22T10:16:49.454Z,13.07
2023-01-22T10:19:23.749Z,13.00
2023-01-22T10:22:02.424Z,14.55
2023-01-22T10:24:30.162Z,13.10
2023-01-22T10:26:58.941Z,12.95
2023-01-22T10:29:28.070Z,12.93
2023-01-22T10:31:58.192Z,13.32
2023-01-22T10:34:32.579Z,12.48
2023-01-22T10:37:04.645Z,13.38
2023-01-22T10:39:44.524Z,13.60
2023-01-22T10:42:20.082Z,12.82
2023-01-22T10:44:47.405Z,13.20
2023-01-22T10:47:27.312Z,13.05
2023-01-22T10:50:06.723Z,13.73
2023-01-22T10:55:07.441Z,12.90
2023-01-22T10:57:37.721Z,13.07
2023-01-22T11:00:23.416Z,13.00
2023-01-22T11:02:51.109Z,12.75
2023-01-22T11:05:22.103Z,13.48
2023-01-22T11:07:57.579Z,13.70
2023-01-22T11:10:35.410Z,13.40
2023-01-22T11:13:12.632Z,12.65
2023-01-22T11:15:53.794Z,12.70
2023-01-22T11:18:32.000Z,14.57
2023-01-22T11:21:00.829Z,17.67
2023-01-22T11:23:55.699Z,16.23
2023-01-22T11:26:34.634Z,18.17
2023-01-22T11:29:19.712Z,18.55
2023-01-22T11:32:17.698Z,15.15
2023-01-22T11:35:01.122Z,12.93
2023-01-22T11:37:43.045Z,13.88
2023-01-22T11:40:25.016Z,13.75
2023-01-22T11:43:00.796Z,14.00
2023-01-22T11:45:37.494Z,14.00
2023-01-22T11:48:10.387Z,13.02
2023-01-22T11:51:03.518Z,13.25
2023-01-22T11:54:05.668Z,14.13
2023-01-22T11:56:46.016Z,13.48
2023-01-22T11:59:25.033Z,13.07
2023-01-22T12:02:06.736Z,12.95
2023-01-22T12:04:51.401Z,12.93
2023-01-22T12:07:45.731Z,13.02
2023-01-22T12:10:33.659Z,14.90
2023-01-22T12:13:26.827Z,14.23
2023-01-22T12:16:31.949Z,13.35
2023-01-22T12:19:04.704Z,11.82
2023-01-22T12:21:46.530Z,15.88
2023-01-22T12:24:25.956Z,12.85
2023-01-22T12:27:05.744Z,13.95
2023-01-22T12:29:54.987Z,13.55
2023-01-22T12:32:24.151Z,13.52
2023-01-22T12:34:53.778Z,15.32
2023-01-22T12:37:25.427Z,14.13
2023-01-22T12:39:58.150Z,14.30
2023-01-22T12:42:35.766Z,13.98
2023-01-22T12:45:17.744Z,14.05
2023-01-22T12:47:59.299Z,13.80
2023-01-22T12:50:27.180Z,14.57
2023-01-22T12:53:02.295Z,13.52
2023-01-22T12:55:29.459Z,14.68
2023-01-22T12:57:56.895Z,14.23
2023-01-22T13:00:31.621Z,14.35
2023-01-22T13:02:58.575Z,13.52
2023-01-22T13:05:31.267Z,13.73
2023-01-22T13:08:02.719Z,13.55
2023-01-22T13:10:31.434Z,15.35
2023-01-22T13:13:20.176Z,15.60
2023-01-22T13:15:54.991Z,15.60
2023-01-22T13:18:24.481Z,15.13
2023-01-22T13:21:08.224Z,14.95
2023-01-22T13:23:40.243Z,16.08
2023-01-22T13:26:07.116Z,15.55
2023-01-22T13:28:34.254Z,14.70
2023-01-22T13:31:04.233Z,15.13
2023-01-22T13:33:31.546Z,15.50
2023-01-22T13:35:58.658Z,15.40
2023-01-22T13:38:28.537Z,15.38
2023-01-22T13:41:04.909Z,15.68
2023-01-22T13:43:34.749Z,15.45
2023-01-22T13:46:01.457Z,14.60
2023-01-22T13:48:28.674Z,14.38
2023-01-22T13:50:57.198Z,17.85
2023-01-22T13:53:33.074Z,14.55
2023-01-22T13:56:00.233Z,19.52
2023-01-22T13:58:48.567Z,23.17
2023-01-22T14:01:30.668Z,23.88
2023-01-22T14:04:23.810Z,17.00
2023-01-22T14:06:50.599Z,16.73
2023-01-22T14:09:35.688Z,17.60
2023-01-22T14:12:15.242Z,17.52
2023-01-22T14:14:43.354Z,15.80
2023-01-22T14:17:34.259Z,16.67
2023-01-22T14:20:02.584Z,20.95
2023-01-22T14:22:29.222Z,23.00
2023-01-22T14:24:56.680Z,17.20
2023-01-22T14:27:27.780Z,18.75
2023-01-22T14:29:55.329Z,17.75
2023-01-22T14:32:23.770Z,16.02
2023-01-22T14:34:50.336Z,18.30
2023-01-22T14:37:18.892Z,18.48
2023-01-22T14:39:45.524Z,17.83
2023-01-22T14:42:12.327Z,19.20
2023-01-22T14:44:39.009Z,18.35
2023-01-22T14:47:05.658Z,18.08
2023-01-22T14:49:32.614Z,16.40
2023-01-22T14:51:59.264Z,16.38
2023-01-22T14:54:26.069Z,15.75
2023-01-22T14:56:52.878Z,16.13
2023-01-22T14:59:20.924Z,17.15
2023-01-22T15:01:47.824Z,16.65
2023-01-22T15:04:14.544Z,18.38
2023-01-22T15:06:41.168Z,15.82
2023-01-22T15:09:07.731Z,17.08
2023-01-22T15:11:34.436Z,17.98
2023-01-22T15:14:01.142Z,17.20
2023-01-22T15:16:27.822Z,19.40
2023-01-22T15:18:56.480Z,21.45
2023-01-22T15:21:23.466Z,20.92
2023-01-22T15:23:50.683Z,17.85
2023-01-22T15:26:27.146Z,16.60
2023-01-22T15:28:58.268Z,20.88
2023-01-22T15:31:24.936Z,20.00
2023-01-22T15:33:51.702Z,16.60
2023-01-22T15:36:19.079Z,14.70
2023-01-22T15:38:45.719Z,15.93
2023-01-22T15:41:18.526Z,16.45
2023-01-22T15:43:46.274Z,16.08
2023-01-22T15:46:12.931Z,17.55
2023-01-22T15:48:39.774Z,18.80
2023-01-22T15:51:10.963Z,18.98
2023-01-22T15:53:37.655Z,15.95
2023-01-22T15:56:04.575Z,16.17
2023-01-22T15:58:32.449Z,19.63
2023-01-22T16:00:59.870Z,15.77
2023-01-22T16:03:26.809Z,15.80
2023-01-22T16:05:53.541Z,15.25
2023-01-22T16:08:20.126Z,13.45
2023-01-22T16:10:46.751Z,15.10
2023-01-22T16:13:13.308Z,15.43
2023-01-22T16:15:40.045Z,12.93
2023-01-22T16:18:06.842Z,15.27
2023-01-22T16:20:33.824Z,14.20
2023-01-22T16:23:00.566Z,13.07
2023-01-22T16:25:27.126Z,14.98
2023-01-22T16:27:53.698Z,15.45
2023-01-22T16:30:20.644Z,14.57
2023-01-22T16:32:47.378Z,14.73
2023-01-22T16:35:14.572Z,14.75
2023-01-22T16:37:44.278Z,15.98
2023-01-22T16:42:38.844Z,20.83
2023-01-22T16:45:05.919Z,16.90
2023-01-22T16:47:32.530Z,16.60
2023-01-22T16:49:59.163Z,15.20
2023-01-22T16:52:25.767Z,15.07
2023-01-22T16:54:52.500Z,13.98
2023-01-22T16:57:20.209Z,14.68
2023-01-22T16:59:47.010Z,15.13
2023-01-22T17:02:15.754Z,14.68
2023-01-22T17:04:42.553Z,18.00
2023-01-22T17:07:13.556Z,15.60
2023-01-22T17:09:47.598Z,16.55
2023-01-22T17:12:14.461Z,16.55
2023-01-22T17:14:41.256Z,18.13
2023-01-22T17:17:12.242Z,17.30
2023-01-22T17:19:39.017Z,17.92
2023-01-22T17:22:05.631Z,17.10
2023-01-22T17:24:32.236Z,18.52
2023-01-22T17:27:02.215Z,18.90
2023-01-22T17:29:31.874Z,21.38
2023-01-22T17:34:25.178Z,21.58
2023-01-22T17:36:51.843Z,21.02
2023-01-22T17:39:20.628Z,20.58
2023-01-22T17:41:47.886Z,30.40
2023-01-22T17:44:14.788Z,21.23
2023-01-22T17:46:41.751Z,21.75
2023-01-22T17:49:11.174Z,20.75
2023-01-22T17:51:38.665Z,21.30
2023-01-22T17:54:06.481Z,20.25
2023-01-22T17:56:36.580Z,21.65
2023-01-22T17:59:06.221Z,21.05
2023-01-22T18:01:35.783Z,19.75
2023-01-22T18:09:00.750Z,18.95
2023-01-22T18:11:29.695Z,20.52
2023-01-22T18:14:02.495Z,19.73
2023-01-22T18:16:31.655Z,20.40
2023-01-22T18:19:01.629Z,23.42
2023-01-22T18:21:29.041Z,21.90
2023-01-22T18:23:56.301Z,21.85
2023-01-22T18:26:23.892Z,20.67
2023-01-22T18:28:51.870Z,19.95
2023-01-22T18:31:22.346Z,22.05
2023-01-22T18:33:49.501Z,20.25
2023-01-22T18:36:19.381Z,19.55
2023-01-22T18:38:46.847Z,18.80
2023-01-22T18:41:16.519Z,17.85
2023-01-22T18:46:13.709Z,16.95
2023-01-22T18:48:41.621Z,18.27
2023-01-22T18:51:10.911Z,18.17
2023-01-22T18:53:37.742Z,16.90
2023-01-22T18:56:06.043Z,18.30
2023-01-22T18:58:36.266Z,17.63
2023-01-22T19:01:13.456Z,18.48
2023-01-22T19:03:42.235Z,17.60
2023-01-22T19:06:15.878Z,19.13
2023-01-22T19:09:14.107Z,18.42
2023-01-22T19:11:49.327Z,17.52
2023-01-22T19:14:18.682Z,16.73
2023-01-22T19:16:48.380Z,15.63
2023-01-22T19:19:15.428Z,16.23
2023-01-22T19:21:46.947Z,15.57
2023-01-22T19:24:16.281Z,15.20
2023-01-22T19:26:46.373Z,15.63
2023-01-22T19:29:17.218Z,15.02
2023-01-22T19:31:47.210Z,14.30
2023-01-22T19:34:18.488Z,15.90
2023-01-22T19:36:45.047Z,14.82
2023-01-22T19:39:13.336Z,14.57
2023-01-22T19:41:40.967Z,17.67
2023-01-22T19:44:09.271Z,16.55
2023-01-22T19:46:37.996Z,14.25
2023-01-22T19:49:05.649Z,15.48
2023-01-22T19:51:32.318Z,13.88
2023-01-22T19:54:00.460Z,15.95
2023-01-22T19:56:30.482Z,14.95
2023-01-22T19:59:05.873Z,15.40
2023-01-22T20:01:33.815Z,15.30
2023-01-22T20:04:01.091Z,14.52
2023-01-22T20:06:27.773Z,14.95
2023-01-22T20:08:56.871Z,15.07
2023-01-22T20:11:24.061Z,14.55
2023-01-22T20:13:50.706Z,14.50
2023-01-22T20:16:28.757Z,15.23
2023-01-22T20:18:57.395Z,14.38
2023-01-22T20:21:25.340Z,14.13
2023-01-22T20:23:52.019Z,15.85
2023-01-22T20:26:20.390Z,16.85
2023-01-22T20:28:47.970Z,17.38
2023-01-22T20:31:19.840Z,15.52
2023-01-22T20:33:46.709Z,17.70
2023-01-22T20:36:17.643Z,16.67
2023-01-22T20:38:46.067Z,16.83
2023-01-22T20:41:13.969Z,17.50
2023-01-22T20:43:42.962Z,18.40
2023-01-22T20:46:17.276Z,19.00
2023-01-22T20:48:44.543Z,17.17
2023-01-22T20:51:17.505Z,17.52
2023-01-22T20:53:45.929Z,18.48
2023-01-22T20:56:15.186Z,17.70
2023-01-22T20:58:42.140Z,18.52
2023-01-22T21:01:16.467Z,21.02
2023-01-22T21:03:44.022Z,19.98
2023-01-22T21:06:14.131Z,18.98
2023-01-22T21:08:42.464Z,18.65
2023-01-22T21:11:12.668Z,20.45
2023-01-22T21:13:39.944Z,20.88
2023-01-22T21:16:17.769Z,19.25
2023-01-22T21:18:46.302Z,20.90
2023-01-22T21:21:18.914Z,19.60
2023-01-22T21:23:50.299Z,19.10
2023-01-22T21:26:25.500Z,21.25
2023-01-22T21:28:58.230Z,19.52
2023-01-22T21:31:25.555Z,19.48
2023-01-22T21:34:03.532Z,18.00
2023-01-22T21:36:40.059Z,17.55
2023-01-22T21:39:12.822Z,18.92
2023-01-22T21:41:41.138Z,19.10
2023-01-22T21:44:29.487Z,18.60
2023-01-22T21:46:57.839Z,16.48
2023-01-22T21:49:24.660Z,17.75
2023-01-22T21:51:55.639Z,18.27
2023-01-22T21:54:26.652Z,18.02
2023-01-22T21:56:54.562Z,16.58
2023-01-22T21:59:21.962Z,16.13
2023-01-22T22:01:57.722Z,17.77
2023-01-22T22:04:26.920Z,16.83
2023-01-22T22:06:54.450Z,17.17
2023-01-22T22:09:24.287Z,17.00
2023-01-22T22:11:54.825Z,17.23
2023-01-22T22:14:22.091Z,17.27
2023-01-22T22:16:49.449Z,16.88
2023-01-22T22:19:17.199Z,16.73
2023-01-22T22:21:44.276Z,16.90
2023-01-22T22:24:11.680Z,16.60
2023-01-22T22:26:39.072Z,16.67
2023-01-22T22:29:07.676Z,15.80
2023-01-22T22:31:36.443Z,15.93
2023-01-22T22:34:03.712Z,15.17
2023-01-22T22:36:32.419Z,16.05
2023-01-22T22:39:00.927Z,15.47
2023-01-22T22:41:30.603Z,14.18
2023-01-22T22:43:57.525Z,15.68
2023-01-22T22:46:29.751Z,16.25
2023-01-22T22:48:59.459Z,16.52
2023-01-22T22:51:34.252Z,16.30
2023-01-22T22:54:03.727Z,16.38
2023-01-22T22:56:31.142Z,17.60
2023-01-22T22:59:00.812Z,15.98
2023-01-22T23:01:29.063Z,15.30
2023-01-22T23:03:55.852Z,16.73
2023-01-22T23:06:28.518Z,16.92
2023-01-22T23:09:09.696Z,16.30
2023-01-22T23:11:36.507Z,16.98
2023-01-22T23:14:04.025Z,16.75
2023-01-22T23:16:33.986Z,16.77
2023-01-22T23:19:03.718Z,15.23
2023-01-22T23:21:30.553Z,15.95
2023-01-22T23:23:57.275Z,16.40
2023-01-22T23:26:28.214Z,16.27
2023-01-22T23:28:57.883Z,16.02
2023-01-22T23:33:53.338Z,15.48
2023-01-22T23:36:20.127Z,16.58
2023-01-22T23:38:46.957Z,17.30
2023-01-22T23:41:17.094Z,15.77
2023-01-22T23:43:44.356Z,15.77
2023-01-22T23:46:15.174Z,17.08
2023-01-22T23:48:42.244Z,16.38
2023-01-22T23:51:10.260Z,17.35
2023-01-22T23:53:40.051Z,17.08
2023-01-22T23:56:08.077Z,16.67
2023-01-22T23:58:35.297Z,15.98
